sensor_id;sensor_type;location;lat;lon;timestamp;P1;durP1;ratioP1;P2;durP2;ratioP2
20731;SDS011;10527;52.124;5.196;2023-02-28T00:01:39;5.00;;;2.23;;
20731;SDS011;10527;52.124;5.196;2023-02-28T00:04:06;2.93;;;2.10;;
20731;SDS011;10527;52.124;5.196;2023-02-28T00:06:35;4.10;;;2.30;;
20731;SDS011;10527;52.124;5.196;2023-02-28T00:09:02;4.23;;;2.33;;
20731;SDS011;10527;52.124;5.196;2023-02-28T00:11:29;2.90;;;1.90;;
20731;SDS011;10527;52.124;5.196;2023-02-28T00:13:59;3.93;;;2.50;;
20731;SDS011;10527;52.124;5.196;2023-02-28T00:16:26;2.73;;;2.00;;
20731;SDS011;10527;52.124;5.196;2023-02-28T00:18:53;4.50;;;2.23;;
20731;SDS011;10527;52.124;5.196;2023-02-28T00:21:19;3.37;;;2.17;;
20731;SDS011;10527;52.124;5.196;2023-02-28T00:23:47;3.57;;;2.03;;
20731;SDS011;10527;52.124;5.196;2023-02-28T00:26:14;3.33;;;2.27;;
20731;SDS011;10527;52.124;5.196;2023-02-28T00:28:41;3.33;;;2.20;;
20731;SDS011;10527;52.124;5.196;2023-02-28T00:31:08;4.13;;;2.23;;
20731;SDS011;10527;52.124;5.196;2023-02-28T00:33:35;3.67;;;1.90;;
20731;SDS011;10527;52.124;5.196;2023-02-28T00:36:06;4.60;;;1.93;;
20731;SDS011;10527;52.124;5.196;2023-02-28T00:38:36;2.97;;;1.70;;
20731;SDS011;10527;52.124;5.196;2023-02-28T00:41:04;3.47;;;1.97;;
20731;SDS011;10527;52.124;5.196;2023-02-28T00:43:33;2.03;;;1.60;;
20731;SDS011;10527;52.124;5.196;2023-02-28T00:46:05;3.40;;;1.83;;
20731;SDS011;10527;52.124;5.196;2023-02-28T00:48:36;5.57;;;2.10;;
20731;SDS011;10527;52.124;5.196;2023-02-28T00:51:03;4.27;;;1.80;;
20731;SDS011;10527;52.124;5.196;2023-02-28T00:53:31;2.27;;;1.80;;
20731;SDS011;10527;52.124;5.196;2023-02-28T00:55:58;6.03;;;2.43;;
20731;SDS011;10527;52.124;5.196;2023-02-28T00:58:25;3.20;;;1.90;;
20731;SDS011;10527;52.124;5.196;2023-02-28T01:00:55;2.20;;;1.60;;
20731;SDS011;10527;52.124;5.196;2023-02-28T01:03:25;4.13;;;1.87;;
20731;SDS011;10527;52.124;5.196;2023-02-28T01:05:52;3.70;;;2.00;;
20731;SDS011;10527;52.124;5.196;2023-02-28T01:08:19;3.37;;;1.73;;
20731;SDS011;10527;52.124;5.196;2023-02-28T01:10:46;3.00;;;1.70;;
20731;SDS011;10527;52.124;5.196;2023-02-28T01:13:13;3.13;;;1.80;;
20731;SDS011;10527;52.124;5.196;2023-02-28T01:15:42;4.23;;;2.07;;
20731;SDS011;10527;52.124;5.196;2023-02-28T01:18:23;2.10;;;1.73;;
20731;SDS011;10527;52.124;5.196;2023-02-28T01:20:51;3.30;;;1.80;;
20731;SDS011;10527;52.124;5.196;2023-02-28T01:23:19;4.63;;;1.93;;
20731;SDS011;10527;52.124;5.196;2023-02-28T01:25:48;4.57;;;2.00;;
20731;SDS011;10527;52.124;5.196;2023-02-28T01:28:18;3.17;;;1.90;;
20731;SDS011;10527;52.124;5.196;2023-02-28T01:30:49;1.70;;;1.20;;
20731;SDS011;10527;52.124;5.196;2023-02-28T01:33:20;2.00;;;1.33;;
20731;SDS011;10527;52.124;5.196;2023-02-28T01:35:49;2.63;;;1.60;;
20731;SDS011;10527;52.124;5.196;2023-02-28T01:38:24;3.13;;;1.57;;
20731;SDS011;10527;52.124;5.196;2023-02-28T01:40:50;6.73;;;1.40;;
20731;SDS011;10527;52.124;5.196;2023-02-28T01:43:28;4.83;;;1.60;;
20731;SDS011;10527;52.124;5.196;2023-02-28T01:45:58;3.73;;;1.70;;
20731;SDS011;10527;52.124;5.196;2023-02-28T01:48:30;2.57;;;1.47;;
20731;SDS011;10527;52.124;5.196;2023-02-28T01:51:03;1.80;;;1.30;;
20731;SDS011;10527;52.124;5.196;2023-02-28T01:53:41;3.03;;;1.60;;
20731;SDS011;10527;52.124;5.196;2023-02-28T01:56:17;2.43;;;1.50;;
20731;SDS011;10527;52.124;5.196;2023-02-28T01:58:53;2.83;;;1.20;;
20731;SDS011;10527;52.124;5.196;2023-02-28T02:01:21;2.37;;;1.57;;
20731;SDS011;10527;52.124;5.196;2023-02-28T02:03:53;2.27;;;1.50;;
20731;SDS011;10527;52.124;5.196;2023-02-28T02:06:23;4.03;;;1.70;;
20731;SDS011;10527;52.124;5.196;2023-02-28T02:08:55;3.27;;;1.83;;
20731;SDS011;10527;52.124;5.196;2023-02-28T02:11:25;2.60;;;1.53;;
20731;SDS011;10527;52.124;5.196;2023-02-28T02:38:57;2.20;;;1.23;;
20731;SDS011;10527;52.124;5.196;2023-02-28T02:41:53;3.53;;;1.57;;
20731;SDS011;10527;52.124;5.196;2023-02-28T02:44:26;2.83;;;1.70;;
20731;SDS011;10527;52.124;5.196;2023-02-28T02:47:06;5.37;;;1.20;;
20731;SDS011;10527;52.124;5.196;2023-02-28T02:49:40;3.53;;;1.50;;
20731;SDS011;10527;52.124;5.196;2023-02-28T02:52:15;2.03;;;1.37;;
20731;SDS011;10527;52.124;5.196;2023-02-28T02:54:48;4.80;;;1.83;;
20731;SDS011;10527;52.124;5.196;2023-02-28T02:57:30;2.33;;;1.60;;
20731;SDS011;10527;52.124;5.196;2023-02-28T03:00:05;3.63;;;1.50;;
20731;SDS011;10527;52.124;5.196;2023-02-28T03:02:35;3.33;;;1.57;;
20731;SDS011;10527;52.124;5.196;2023-02-28T03:05:05;4.47;;;1.60;;
20731;SDS011;10527;52.124;5.196;2023-02-28T03:07:51;3.87;;;1.63;;
20731;SDS011;10527;52.124;5.196;2023-02-28T03:31:00;3.60;;;1.63;;
20731;SDS011;10527;52.124;5.196;2023-02-28T03:33:47;2.47;;;1.30;;
20731;SDS011;10527;52.124;5.196;2023-02-28T03:36:27;2.07;;;1.40;;
20731;SDS011;10527;52.124;5.196;2023-02-28T03:38:59;3.33;;;1.30;;
20731;SDS011;10527;52.124;5.196;2023-02-28T03:41:54;2.07;;;1.43;;
20731;SDS011;10527;52.124;5.196;2023-02-28T03:44:32;2.73;;;1.37;;
20731;SDS011;10527;52.124;5.196;2023-02-28T03:47:27;3.97;;;1.57;;
20731;SDS011;10527;52.124;5.196;2023-02-28T03:50:14;2.70;;;1.73;;
20731;SDS011;10527;52.124;5.196;2023-02-28T03:52:47;4.57;;;1.57;;
20731;SDS011;10527;52.124;5.196;2023-02-28T03:55:32;3.83;;;1.73;;
20731;SDS011;10527;52.124;5.196;2023-02-28T04:04:04;3.00;;;1.43;;
20731;SDS011;10527;52.124;5.196;2023-02-28T04:06:32;2.60;;;1.30;;
20731;SDS011;10527;52.124;5.196;2023-02-28T04:09:00;2.80;;;1.73;;
20731;SDS011;10527;52.124;5.196;2023-02-28T04:11:32;2.83;;;1.70;;
20731;SDS011;10527;52.124;5.196;2023-02-28T04:14:15;3.47;;;1.70;;
20731;SDS011;10527;52.124;5.196;2023-02-28T04:16:42;2.40;;;1.40;;
20731;SDS011;10527;52.124;5.196;2023-02-28T04:19:10;2.03;;;1.50;;
20731;SDS011;10527;52.124;5.196;2023-02-28T04:21:40;5.87;;;2.20;;
20731;SDS011;10527;52.124;5.196;2023-02-28T04:24:14;2.60;;;1.57;;
20731;SDS011;10527;52.124;5.196;2023-02-28T04:26:45;3.47;;;1.80;;
20731;SDS011;10527;52.124;5.196;2023-02-28T04:29:19;3.60;;;1.70;;
20731;SDS011;10527;52.124;5.196;2023-02-28T04:31:56;3.27;;;1.80;;
20731;SDS011;10527;52.124;5.196;2023-02-28T04:34:25;4.50;;;2.17;;
20731;SDS011;10527;52.124;5.196;2023-02-28T04:36:54;4.33;;;2.10;;
20731;SDS011;10527;52.124;5.196;2023-02-28T04:39:38;4.47;;;1.93;;
20731;SDS011;10527;52.124;5.196;2023-02-28T04:42:05;4.67;;;1.93;;
20731;SDS011;10527;52.124;5.196;2023-02-28T04:44:35;3.50;;;1.90;;
20731;SDS011;10527;52.124;5.196;2023-02-28T04:47:02;5.10;;;2.00;;
20731;SDS011;10527;52.124;5.196;2023-02-28T04:49:29;3.53;;;1.80;;
20731;SDS011;10527;52.124;5.196;2023-02-28T04:51:56;3.03;;;1.97;;
20731;SDS011;10527;52.124;5.196;2023-02-28T04:54:23;4.10;;;2.50;;
20731;SDS011;10527;52.124;5.196;2023-02-28T04:56:55;3.07;;;1.83;;
20731;SDS011;10527;52.124;5.196;2023-02-28T04:59:22;3.80;;;2.13;;
20731;SDS011;10527;52.124;5.196;2023-02-28T05:01:49;5.23;;;1.80;;
20731;SDS011;10527;52.124;5.196;2023-02-28T05:04:16;2.53;;;2.07;;
20731;SDS011;10527;52.124;5.196;2023-02-28T05:06:43;5.57;;;1.90;;
20731;SDS011;10527;52.124;5.196;2023-02-28T05:09:16;3.57;;;2.27;;
20731;SDS011;10527;52.124;5.196;2023-02-28T05:11:42;6.20;;;3.03;;
20731;SDS011;10527;52.124;5.196;2023-02-28T05:14:10;3.67;;;2.00;;
20731;SDS011;10527;52.124;5.196;2023-02-28T05:16:40;3.00;;;1.63;;
20731;SDS011;10527;52.124;5.196;2023-02-28T05:19:09;3.00;;;1.53;;
20731;SDS011;10527;52.124;5.196;2023-02-28T05:21:40;5.43;;;2.40;;
20731;SDS011;10527;52.124;5.196;2023-02-28T05:24:18;3.27;;;1.87;;
20731;SDS011;10527;52.124;5.196;2023-02-28T05:26:49;2.70;;;1.60;;
20731;SDS011;10527;52.124;5.196;2023-02-28T05:29:19;2.83;;;1.77;;
20731;SDS011;10527;52.124;5.196;2023-02-28T05:31:46;2.80;;;2.00;;
20731;SDS011;10527;52.124;5.196;2023-02-28T05:34:13;3.73;;;1.87;;
20731;SDS011;10527;52.124;5.196;2023-02-28T05:36:44;3.73;;;1.67;;
20731;SDS011;10527;52.124;5.196;2023-02-28T05:39:11;4.30;;;2.20;;
20731;SDS011;10527;52.124;5.196;2023-02-28T05:41:42;2.93;;;2.00;;
20731;SDS011;10527;52.124;5.196;2023-02-28T05:44:09;3.73;;;1.80;;
20731;SDS011;10527;52.124;5.196;2023-02-28T05:46:38;3.40;;;1.70;;
20731;SDS011;10527;52.124;5.196;2023-02-28T05:49:07;3.73;;;1.73;;
20731;SDS011;10527;52.124;5.196;2023-02-28T05:51:34;3.30;;;1.70;;
20731;SDS011;10527;52.124;5.196;2023-02-28T05:54:05;2.90;;;1.70;;
20731;SDS011;10527;52.124;5.196;2023-02-28T05:56:33;2.97;;;1.93;;
20731;SDS011;10527;52.124;5.196;2023-02-28T05:59:10;2.97;;;1.60;;
20731;SDS011;10527;52.124;5.196;2023-02-28T06:01:38;3.63;;;2.13;;
20731;SDS011;10527;52.124;5.196;2023-02-28T06:04:18;4.23;;;2.00;;
20731;SDS011;10527;52.124;5.196;2023-02-28T06:06:57;2.53;;;1.83;;
20731;SDS011;10527;52.124;5.196;2023-02-28T06:09:24;2.63;;;2.13;;
20731;SDS011;10527;52.124;5.196;2023-02-28T06:11:51;3.50;;;2.17;;
20731;SDS011;10527;52.124;5.196;2023-02-28T06:14:20;2.83;;;1.83;;
20731;SDS011;10527;52.124;5.196;2023-02-28T06:16:48;3.73;;;1.87;;
20731;SDS011;10527;52.124;5.196;2023-02-28T06:19:15;3.10;;;2.10;;
20731;SDS011;10527;52.124;5.196;2023-02-28T06:21:42;2.13;;;1.53;;
20731;SDS011;10527;52.124;5.196;2023-02-28T06:24:10;2.57;;;1.60;;
20731;SDS011;10527;52.124;5.196;2023-02-28T06:26:43;2.17;;;1.30;;
20731;SDS011;10527;52.124;5.196;2023-02-28T06:29:09;3.43;;;1.53;;
20731;SDS011;10527;52.124;5.196;2023-02-28T06:31:36;2.63;;;1.97;;
20731;SDS011;10527;52.124;5.196;2023-02-28T06:34:07;6.00;;;2.07;;
20731;SDS011;10527;52.124;5.196;2023-02-28T06:36:38;2.97;;;2.10;;
20731;SDS011;10527;52.124;5.196;2023-02-28T06:39:05;2.73;;;1.83;;
20731;SDS011;10527;52.124;5.196;2023-02-28T06:41:34;2.90;;;2.27;;
20731;SDS011;10527;52.124;5.196;2023-02-28T06:44:20;2.63;;;1.80;;
20731;SDS011;10527;52.124;5.196;2023-02-28T06:46:48;3.30;;;2.33;;
20731;SDS011;10527;52.124;5.196;2023-02-28T06:49:15;2.97;;;1.87;;
20731;SDS011;10527;52.124;5.196;2023-02-28T06:51:43;2.23;;;1.73;;
20731;SDS011;10527;52.124;5.196;2023-02-28T06:54:11;4.20;;;2.00;;
20731;SDS011;10527;52.124;5.196;2023-02-28T06:56:39;2.20;;;2.00;;
20731;SDS011;10527;52.124;5.196;2023-02-28T06:59:08;3.20;;;2.53;;
20731;SDS011;10527;52.124;5.196;2023-02-28T07:01:35;3.93;;;2.40;;
20731;SDS011;10527;52.124;5.196;2023-02-28T07:04:06;3.43;;;2.20;;
20731;SDS011;10527;52.124;5.196;2023-02-28T07:06:33;4.67;;;2.40;;
20731;SDS011;10527;52.124;5.196;2023-02-28T07:09:00;5.33;;;2.20;;
20731;SDS011;10527;52.124;5.196;2023-02-28T07:11:27;3.37;;;2.60;;
20731;SDS011;10527;52.124;5.196;2023-02-28T07:13:55;3.30;;;2.50;;
20731;SDS011;10527;52.124;5.196;2023-02-28T07:16:23;2.93;;;2.33;;
20731;SDS011;10527;52.124;5.196;2023-02-28T07:18:54;2.50;;;2.23;;
20731;SDS011;10527;52.124;5.196;2023-02-28T07:21:21;2.83;;;2.20;;
20731;SDS011;10527;52.124;5.196;2023-02-28T07:23:49;3.53;;;2.03;;
20731;SDS011;10527;52.124;5.196;2023-02-28T07:26:18;2.93;;;2.50;;
20731;SDS011;10527;52.124;5.196;2023-02-28T07:28:50;3.73;;;2.60;;
20731;SDS011;10527;52.124;5.196;2023-02-28T07:31:17;3.63;;;2.43;;
20731;SDS011;10527;52.124;5.196;2023-02-28T07:33:44;4.83;;;2.80;;
20731;SDS011;10527;52.124;5.196;2023-02-28T07:36:13;4.67;;;2.60;;
20731;SDS011;10527;52.124;5.196;2023-02-28T07:38:43;2.87;;;2.50;;
20731;SDS011;10527;52.124;5.196;2023-02-28T07:41:16;4.73;;;2.70;;
20731;SDS011;10527;52.124;5.196;2023-02-28T07:43:47;3.40;;;2.53;;
20731;SDS011;10527;52.124;5.196;2023-02-28T07:46:15;4.07;;;2.40;;
20731;SDS011;10527;52.124;5.196;2023-02-28T07:48:43;4.53;;;2.50;;
20731;SDS011;10527;52.124;5.196;2023-02-28T07:51:10;3.20;;;2.20;;
20731;SDS011;10527;52.124;5.196;2023-02-28T07:53:38;3.20;;;2.37;;
20731;SDS011;10527;52.124;5.196;2023-02-28T07:56:05;3.10;;;2.47;;
20731;SDS011;10527;52.124;5.196;2023-02-28T07:58:32;3.47;;;2.20;;
20731;SDS011;10527;52.124;5.196;2023-02-28T08:01:07;3.90;;;3.00;;
20731;SDS011;10527;52.124;5.196;2023-02-28T08:03:35;3.27;;;2.80;;
20731;SDS011;10527;52.124;5.196;2023-02-28T08:06:03;4.17;;;2.60;;
20731;SDS011;10527;52.124;5.196;2023-02-28T08:08:32;3.70;;;2.83;;
20731;SDS011;10527;52.124;5.196;2023-02-28T08:11:00;3.60;;;2.57;;
20731;SDS011;10527;52.124;5.196;2023-02-28T08:13:29;3.53;;;2.57;;
20731;SDS011;10527;52.124;5.196;2023-02-28T08:15:57;3.53;;;2.83;;
20731;SDS011;10527;52.124;5.196;2023-02-28T08:18:24;4.97;;;2.93;;
20731;SDS011;10527;52.124;5.196;2023-02-28T08:20:51;3.73;;;2.90;;
20731;SDS011;10527;52.124;5.196;2023-02-28T08:23:17;16.57;;;3.33;;
20731;SDS011;10527;52.124;5.196;2023-02-28T08:25:54;5.57;;;2.97;;
20731;SDS011;10527;52.124;5.196;2023-02-28T08:28:22;2.73;;;2.40;;
20731;SDS011;10527;52.124;5.196;2023-02-28T08:30:52;3.10;;;2.43;;
20731;SDS011;10527;52.124;5.196;2023-02-28T08:33:20;3.17;;;2.73;;
20731;SDS011;10527;52.124;5.196;2023-02-28T08:35:48;4.33;;;2.67;;
20731;SDS011;10527;52.124;5.196;2023-02-28T08:38:20;2.63;;;2.20;;
20731;SDS011;10527;52.124;5.196;2023-02-28T08:40:48;3.83;;;2.53;;
20731;SDS011;10527;52.124;5.196;2023-02-28T08:43:15;5.30;;;3.50;;
20731;SDS011;10527;52.124;5.196;2023-02-28T08:45:42;3.87;;;2.50;;
20731;SDS011;10527;52.124;5.196;2023-02-28T08:48:09;3.33;;;2.70;;
20731;SDS011;10527;52.124;5.196;2023-02-28T08:50:36;4.87;;;2.43;;
20731;SDS011;10527;52.124;5.196;2023-02-28T08:53:03;3.20;;;2.27;;
20731;SDS011;10527;52.124;5.196;2023-02-28T08:55:30;2.53;;;1.93;;
20731;SDS011;10527;52.124;5.196;2023-02-28T08:57:57;5.33;;;2.57;;
20731;SDS011;10527;52.124;5.196;2023-02-28T09:00:24;3.90;;;2.30;;
20731;SDS011;10527;52.124;5.196;2023-02-28T09:02:51;5.30;;;2.70;;
20731;SDS011;10527;52.124;5.196;2023-02-28T09:05:18;2.77;;;2.10;;
20731;SDS011;10527;52.124;5.196;2023-02-28T09:07:45;4.17;;;2.40;;
20731;SDS011;10527;52.124;5.196;2023-02-28T09:10:12;4.57;;;2.57;;
20731;SDS011;10527;52.124;5.196;2023-02-28T09:12:38;5.30;;;2.20;;
20731;SDS011;10527;52.124;5.196;2023-02-28T09:15:05;5.63;;;2.47;;
20731;SDS011;10527;52.124;5.196;2023-02-28T09:17:33;3.10;;;2.20;;
20731;SDS011;10527;52.124;5.196;2023-02-28T09:20:00;2.90;;;2.20;;
20731;SDS011;10527;52.124;5.196;2023-02-28T09:22:27;2.30;;;2.07;;
20731;SDS011;10527;52.124;5.196;2023-02-28T09:24:57;4.20;;;1.97;;
20731;SDS011;10527;52.124;5.196;2023-02-28T09:27:24;4.93;;;2.40;;
20731;SDS011;10527;52.124;5.196;2023-02-28T09:29:51;4.67;;;1.93;;
20731;SDS011;10527;52.124;5.196;2023-02-28T09:32:17;3.50;;;1.90;;
20731;SDS011;10527;52.124;5.196;2023-02-28T09:34:44;2.03;;;1.73;;
20731;SDS011;10527;52.124;5.196;2023-02-28T09:37:11;2.20;;;1.63;;
20731;SDS011;10527;52.124;5.196;2023-02-28T09:39:38;3.90;;;2.07;;
20731;SDS011;10527;52.124;5.196;2023-02-28T09:42:05;4.97;;;2.00;;
20731;SDS011;10527;52.124;5.196;2023-02-28T09:44:41;5.70;;;1.93;;
20731;SDS011;10527;52.124;5.196;2023-02-28T09:47:13;5.53;;;2.20;;
20731;SDS011;10527;52.124;5.196;2023-02-28T09:52:46;3.43;;;2.00;;
20731;SDS011;10527;52.124;5.196;2023-02-28T09:58:08;2.40;;;1.70;;
20731;SDS011;10527;52.124;5.196;2023-02-28T10:01:12;2.47;;;1.80;;
20731;SDS011;10527;52.124;5.196;2023-02-28T10:04:44;3.47;;;2.53;;
20731;SDS011;10527;52.124;5.196;2023-02-28T10:10:40;2.27;;;1.80;;
20731;SDS011;10527;52.124;5.196;2023-02-28T10:13:19;2.90;;;2.30;;
20731;SDS011;10527;52.124;5.196;2023-02-28T10:16:14;4.20;;;1.83;;
20731;SDS011;10527;52.124;5.196;2023-02-28T10:18:55;2.90;;;1.47;;
20731;SDS011;10527;52.124;5.196;2023-02-28T10:21:44;1.47;;;1.27;;
20731;SDS011;10527;52.124;5.196;2023-02-28T10:24:38;2.13;;;1.20;;
20731;SDS011;10527;52.124;5.196;2023-02-28T10:27:16;2.50;;;1.30;;
20731;SDS011;10527;52.124;5.196;2023-02-28T10:29:55;2.17;;;1.20;;
20731;SDS011;10527;52.124;5.196;2023-02-28T10:32:27;1.83;;;1.20;;
20731;SDS011;10527;52.124;5.196;2023-02-28T10:37:47;1.87;;;1.10;;
20731;SDS011;10527;52.124;5.196;2023-02-28T10:45:51;1.03;;;0.93;;
20731;SDS011;10527;52.124;5.196;2023-02-28T10:48:30;1.53;;;1.13;;
20731;SDS011;10527;52.124;5.196;2023-02-28T10:51:07;1.53;;;1.10;;
20731;SDS011;10527;52.124;5.196;2023-02-28T10:53:45;1.20;;;1.07;;
20731;SDS011;10527;52.124;5.196;2023-02-28T10:56:28;1.03;;;0.90;;
20731;SDS011;10527;52.124;5.196;2023-02-28T10:59:19;1.50;;;1.30;;
20731;SDS011;10527;52.124;5.196;2023-02-28T11:01:55;1.20;;;0.90;;
20731;SDS011;10527;52.124;5.196;2023-02-28T11:06:59;1.90;;;1.07;;
20731;SDS011;10527;52.124;5.196;2023-02-28T11:09:38;1.73;;;1.00;;
20731;SDS011;10527;52.124;5.196;2023-02-28T11:12:21;1.73;;;1.20;;
20731;SDS011;10527;52.124;5.196;2023-02-28T11:14:54;1.73;;;1.00;;
20731;SDS011;10527;52.124;5.196;2023-02-28T11:17:26;1.83;;;1.10;;
20731;SDS011;10527;52.124;5.196;2023-02-28T11:20:04;1.10;;;0.90;;
20731;SDS011;10527;52.124;5.196;2023-02-28T11:22:45;1.70;;;1.30;;
20731;SDS011;10527;52.124;5.196;2023-02-28T11:25:19;1.77;;;1.37;;
20731;SDS011;10527;52.124;5.196;2023-02-28T11:27:53;2.33;;;1.30;;
20731;SDS011;10527;52.124;5.196;2023-02-28T11:30:39;1.40;;;0.93;;
20731;SDS011;10527;52.124;5.196;2023-02-28T11:33:20;2.03;;;1.27;;
20731;SDS011;10527;52.124;5.196;2023-02-28T11:36:04;1.17;;;0.97;;
20731;SDS011;10527;52.124;5.196;2023-02-28T11:39:04;1.10;;;0.97;;
20731;SDS011;10527;52.124;5.196;2023-02-28T11:44:45;1.40;;;1.00;;
20731;SDS011;10527;52.124;5.196;2023-02-28T11:50:36;1.97;;;1.00;;
20731;SDS011;10527;52.124;5.196;2023-02-28T11:56:17;3.13;;;1.00;;
20731;SDS011;10527;52.124;5.196;2023-02-28T12:05:20;1.50;;;1.10;;
20731;SDS011;10527;52.124;5.196;2023-02-28T12:08:15;1.50;;;1.17;;
20731;SDS011;10527;52.124;5.196;2023-02-28T12:11:33;1.33;;;1.10;;
20731;SDS011;10527;52.124;5.196;2023-02-28T12:17:50;1.37;;;1.00;;
20731;SDS011;10527;52.124;5.196;2023-02-28T12:34:55;1.43;;;1.03;;
20731;SDS011;10527;52.124;5.196;2023-02-28T12:37:31;1.47;;;1.00;;
20731;SDS011;10527;52.124;5.196;2023-02-28T12:40:11;1.27;;;1.03;;
20731;SDS011;10527;52.124;5.196;2023-02-28T12:42:53;1.33;;;1.10;;
20731;SDS011;10527;52.124;5.196;2023-02-28T12:46:34;1.73;;;0.80;;
20731;SDS011;10527;52.124;5.196;2023-02-28T12:51:07;2.13;;;1.10;;
20731;SDS011;10527;52.124;5.196;2023-02-28T12:57:18;1.77;;;1.17;;
20731;SDS011;10527;52.124;5.196;2023-02-28T13:00:02;1.60;;;1.00;;
20731;SDS011;10527;52.124;5.196;2023-02-28T13:14:26;7.00;;;2.03;;
20731;SDS011;10527;52.124;5.196;2023-02-28T13:17:09;1.20;;;1.10;;
20731;SDS011;10527;52.124;5.196;2023-02-28T13:19:55;1.07;;;0.90;;
20731;SDS011;10527;52.124;5.196;2023-02-28T13:24:53;1.30;;;0.97;;
20731;SDS011;10527;52.124;5.196;2023-02-28T13:27:37;2.53;;;1.10;;
20731;SDS011;10527;52.124;5.196;2023-02-28T13:33:21;1.37;;;0.97;;
20731;SDS011;10527;52.124;5.196;2023-02-28T13:36:26;2.33;;;1.20;;
20731;SDS011;10527;52.124;5.196;2023-02-28T13:38:58;12.80;;;1.40;;
20731;SDS011;10527;52.124;5.196;2023-02-28T13:41:50;2.97;;;1.30;;
20731;SDS011;10527;52.124;5.196;2023-02-28T13:44:18;1.73;;;0.90;;
20731;SDS011;10527;52.124;5.196;2023-02-28T13:54:24;1.87;;;1.23;;
20731;SDS011;10527;52.124;5.196;2023-02-28T13:57:35;2.67;;;1.47;;
20731;SDS011;10527;52.124;5.196;2023-02-28T14:01:03;1.67;;;1.07;;
20731;SDS011;10527;52.124;5.196;2023-02-28T14:07:31;1.63;;;1.13;;
20731;SDS011;10527;52.124;5.196;2023-02-28T14:10:22;2.50;;;1.50;;
20731;SDS011;10527;52.124;5.196;2023-02-28T14:15:49;1.83;;;1.03;;
20731;SDS011;10527;52.124;5.196;2023-02-28T14:18:28;1.53;;;1.03;;
20731;SDS011;10527;52.124;5.196;2023-02-28T14:39:16;1.90;;;1.27;;
20731;SDS011;10527;52.124;5.196;2023-02-28T14:41:48;2.10;;;1.53;;
20731;SDS011;10527;52.124;5.196;2023-02-28T14:44:17;3.80;;;2.10;;
20731;SDS011;10527;52.124;5.196;2023-02-28T14:46:51;2.80;;;1.13;;
20731;SDS011;10527;52.124;5.196;2023-02-28T14:49:32;1.53;;;1.00;;
20731;SDS011;10527;52.124;5.196;2023-02-28T14:54:51;4.93;;;1.40;;
20731;SDS011;10527;52.124;5.196;2023-02-28T15:02:36;2.13;;;1.27;;
20731;SDS011;10527;52.124;5.196;2023-02-28T15:07:46;1.77;;;1.27;;
20731;SDS011;10527;52.124;5.196;2023-02-28T15:10:26;1.67;;;1.27;;
20731;SDS011;10527;52.124;5.196;2023-02-28T15:15:40;3.30;;;1.47;;
20731;SDS011;10527;52.124;5.196;2023-02-28T15:18:33;1.77;;;1.30;;
20731;SDS011;10527;52.124;5.196;2023-02-28T15:21:06;2.23;;;1.20;;
20731;SDS011;10527;52.124;5.196;2023-02-28T15:23:39;1.20;;;1.10;;
20731;SDS011;10527;52.124;5.196;2023-02-28T15:26:15;2.00;;;1.00;;
20731;SDS011;10527;52.124;5.196;2023-02-28T15:28:48;1.37;;;1.00;;
20731;SDS011;10527;52.124;5.196;2023-02-28T15:31:28;1.73;;;1.37;;
20731;SDS011;10527;52.124;5.196;2023-02-28T15:34:35;1.63;;;1.20;;
20731;SDS011;10527;52.124;5.196;2023-02-28T15:40:10;1.47;;;1.03;;
20731;SDS011;10527;52.124;5.196;2023-02-28T15:42:41;1.53;;;1.10;;
20731;SDS011;10527;52.124;5.196;2023-02-28T15:45:31;1.03;;;0.93;;
20731;SDS011;10527;52.124;5.196;2023-02-28T15:50:52;1.47;;;1.27;;
20731;SDS011;10527;52.124;5.196;2023-02-28T15:53:29;2.40;;;1.50;;
20731;SDS011;10527;52.124;5.196;2023-02-28T15:56:02;2.67;;;1.50;;
20731;SDS011;10527;52.124;5.196;2023-02-28T15:58:38;3.73;;;2.43;;
20731;SDS011;10527;52.124;5.196;2023-02-28T16:01:29;2.50;;;1.33;;
20731;SDS011;10527;52.124;5.196;2023-02-28T16:04:04;2.27;;;1.77;;
20731;SDS011;10527;52.124;5.196;2023-02-28T16:06:43;1.30;;;1.10;;
20731;SDS011;10527;52.124;5.196;2023-02-28T16:09:27;2.03;;;1.40;;
20731;SDS011;10527;52.124;5.196;2023-02-28T16:12:00;1.80;;;1.27;;
20731;SDS011;10527;52.124;5.196;2023-02-28T16:14:29;1.40;;;1.10;;
20731;SDS011;10527;52.124;5.196;2023-02-28T16:17:04;3.73;;;1.93;;
20731;SDS011;10527;52.124;5.196;2023-02-28T16:19:54;4.37;;;2.60;;
20731;SDS011;10527;52.124;5.196;2023-02-28T16:22:22;2.03;;;1.50;;
20731;SDS011;10527;52.124;5.196;2023-02-28T16:24:49;2.60;;;1.40;;
20731;SDS011;10527;52.124;5.196;2023-02-28T16:27:17;2.37;;;1.60;;
20731;SDS011;10527;52.124;5.196;2023-02-28T16:29:58;2.50;;;1.20;;
20731;SDS011;10527;52.124;5.196;2023-02-28T16:32:26;4.03;;;1.20;;
20731;SDS011;10527;52.124;5.196;2023-02-28T16:34:54;2.70;;;1.20;;
20731;SDS011;10527;52.124;5.196;2023-02-28T16:37:24;2.07;;;1.13;;
20731;SDS011;10527;52.124;5.196;2023-02-28T16:39:53;1.83;;;1.20;;
20731;SDS011;10527;52.124;5.196;2023-02-28T16:42:21;6.30;;;1.17;;
20731;SDS011;10527;52.124;5.196;2023-02-28T16:44:54;1.30;;;1.07;;
20731;SDS011;10527;52.124;5.196;2023-02-28T16:47:22;1.30;;;1.20;;
20731;SDS011;10527;52.124;5.196;2023-02-28T16:49:48;2.00;;;1.27;;
20731;SDS011;10527;52.124;5.196;2023-02-28T16:52:15;2.17;;;1.60;;
20731;SDS011;10527;52.124;5.196;2023-02-28T16:54:42;3.23;;;2.00;;
20731;SDS011;10527;52.124;5.196;2023-02-28T16:57:15;3.27;;;1.63;;
20731;SDS011;10527;52.124;5.196;2023-02-28T16:59:48;4.47;;;2.33;;
20731;SDS011;10527;52.124;5.196;2023-02-28T17:02:17;2.70;;;1.73;;
20731;SDS011;10527;52.124;5.196;2023-02-28T17:04:46;2.00;;;1.23;;
20731;SDS011;10527;52.124;5.196;2023-02-28T17:07:13;2.60;;;1.60;;
20731;SDS011;10527;52.124;5.196;2023-02-28T17:09:43;3.73;;;1.63;;
20731;SDS011;10527;52.124;5.196;2023-02-28T17:12:15;2.20;;;1.47;;
20731;SDS011;10527;52.124;5.196;2023-02-28T17:14:44;2.93;;;1.33;;
20731;SDS011;10527;52.124;5.196;2023-02-28T17:17:15;2.27;;;1.40;;
20731;SDS011;10527;52.124;5.196;2023-02-28T17:19:47;2.03;;;1.13;;
20731;SDS011;10527;52.124;5.196;2023-02-28T17:22:14;1.50;;;1.30;;
20731;SDS011;10527;52.124;5.196;2023-02-28T17:24:41;2.03;;;1.77;;
20731;SDS011;10527;52.124;5.196;2023-02-28T17:27:11;2.83;;;1.63;;
20731;SDS011;10527;52.124;5.196;2023-02-28T17:29:39;2.57;;;1.70;;
20731;SDS011;10527;52.124;5.196;2023-02-28T17:32:19;2.63;;;1.53;;
20731;SDS011;10527;52.124;5.196;2023-02-28T17:34:46;2.33;;;1.60;;
20731;SDS011;10527;52.124;5.196;2023-02-28T17:37:13;5.90;;;2.63;;
20731;SDS011;10527;52.124;5.196;2023-02-28T17:39:40;2.77;;;2.00;;
20731;SDS011;10527;52.124;5.196;2023-02-28T17:42:07;4.77;;;2.40;;
20731;SDS011;10527;52.124;5.196;2023-02-28T17:44:34;4.10;;;3.13;;
20731;SDS011;10527;52.124;5.196;2023-02-28T17:47:01;4.20;;;2.27;;
20731;SDS011;10527;52.124;5.196;2023-02-28T17:49:31;3.80;;;2.10;;
20731;SDS011;10527;52.124;5.196;2023-02-28T17:51:59;3.13;;;2.23;;
20731;SDS011;10527;52.124;5.196;2023-02-28T17:54:26;2.37;;;2.00;;
20731;SDS011;10527;52.124;5.196;2023-02-28T17:56:52;3.50;;;2.50;;
20731;SDS011;10527;52.124;5.196;2023-02-28T17:59:19;3.73;;;2.37;;
20731;SDS011;10527;52.124;5.196;2023-02-28T18:01:46;4.77;;;2.67;;
20731;SDS011;10527;52.124;5.196;2023-02-28T18:04:13;3.17;;;2.40;;
20731;SDS011;10527;52.124;5.196;2023-02-28T18:06:43;3.70;;;2.63;;
20731;SDS011;10527;52.124;5.196;2023-02-28T18:09:17;3.60;;;2.50;;
20731;SDS011;10527;52.124;5.196;2023-02-28T18:11:55;4.17;;;2.67;;
20731;SDS011;10527;52.124;5.196;2023-02-28T18:14:25;5.37;;;2.80;;
20731;SDS011;10527;52.124;5.196;2023-02-28T18:16:53;4.13;;;2.67;;
20731;SDS011;10527;52.124;5.196;2023-02-28T18:19:24;3.40;;;2.50;;
20731;SDS011;10527;52.124;5.196;2023-02-28T18:21:51;4.53;;;2.87;;
20731;SDS011;10527;52.124;5.196;2023-02-28T18:24:20;4.33;;;2.80;;